Time;durP1;ratioP1;P1;durP2;ratioP2;P2;SDS_P1;SDS_P2;PMS_P1;PMS_P2;Temp;Humidity;BMP_temperature;BMP_pressure;BME280_temperature;BME280_humidity;BME280_pressure;Samples;Min_cycle;Max_cycle;Signal;HPM_P1;HPM_P2
2024/03/19 00:00:16;;;;;;;2.28;1.65;;;;;;;0.44;85.68;101638.84;4889950;29;20260;-78
2024/03/19 00:02:45;;;;;;;0.90;0.70;;;;;;;0.38;86.34;101629.53;4891399;29;20196;-78
2024/03/19 00:05:16;;;;;;;1.45;0.88;;;;;;;0.60;85.67;101636.69;4887361;29;20205;-79
2024/03/19 00:07:45;;;;;;;1.05;0.95;;;;;;;0.48;85.68;101642.97;4872735;29;20190;-80
2024/03/19 00:10:14;;;;;;;2.30;1.33;;;;;;;0.52;85.25;101635.59;4864909;29;20189;-79
2024/03/19 00:12:47;;;;;;;2.58;2.38;;;;;;;0.47;85.70;101637.75;4879881;29;20665;-79
2024/03/19 00:15:16;;;;;;;1.35;1.25;;;;;;;0.49;85.59;101635.81;4864422;29;20192;-79
2024/03/19 00:17:46;;;;;;;0.80;0.50;;;;;;;0.50;85.84;101637.50;4888129;29;20240;-79
2024/03/19 00:20:15;;;;;;;1.17;1.08;;;;;;;0.47;86.36;101637.75;4879691;29;20264;-78
2024/03/19 00:22:44;;;;;;;1.75;1.65;;;;;;;0.40;87.60;101643.56;4894319;29;20176;-78
2024/03/19 00:25:14;;;;;;;2.60;2.40;;;;;;;0.40;87.07;101632.06;4884947;29;20180;-80
2024/03/19 00:27:47;;;;;;;1.55;1.17;;;;;;;0.35;86.85;101637.75;4887058;29;20239;-79
2024/03/19 00:30:19;;;;;;;2.17;1.65;;;;;;;0.41;86.63;101639.94;4887423;29;20726;-80
2024/03/19 00:32:55;;;;;;;1.10;0.90;;;;;;;0.28;87.00;101639.19;4886322;29;20369;-79
2024/03/19 00:35:29;;;;;;;1.23;1.13;;;;;;;0.26;87.25;101635.78;4886930;29;20194;-79
2024/03/19 00:46:36;;;;;;;1.33;0.90;;;;;;;0.22;88.07;101633.47;4862376;29;20766;-80
2024/03/19 00:49:06;;;;;;;1.67;1.58;;;;;;;0.17;87.99;101625.00;4870662;29;20740;-80
2024/03/19 00:51:35;;;;;;;1.10;1.00;;;;;;;0.22;88.79;101631.66;4887816;29;20205;-80
2024/03/19 00:54:05;;;;;;;1.10;1.00;;;;;;;0.32;87.09;101631.81;4902646;29;20215;-80
2024/03/19 00:56:37;;;;;;;3.60;1.40;;;;;;;0.14;87.58;101634.09;4884648;29;20729;-80
2024/03/19 00:59:07;;;;;;;2.22;2.00;;;;;;;0.30;86.82;101639.91;4876244;29;20202;-79
2024/03/19 01:01:38;;;;;;;2.05;1.65;;;;;;;0.24;87.34;101632.38;4868281;29;20180;-79
2024/03/19 01:04:08;;;;;;;2.85;1.10;;;;;;;0.17;87.17;101631.16;4868540;29;20209;-80
2024/03/19 01:06:39;;;;;;;2.80;1.60;;;;;;;0.23;87.01;101630.72;4868535;29;20314;-80
2024/03/19 01:09:12;;;;;;;1.02;0.70;;;;;;;0.21;87.57;101634.44;4884804;29;20204;-80
2024/03/19 01:11:44;;;;;;;2.90;1.10;;;;;;;0.21;87.72;101621.97;4882450;29;20253;-80
2024/03/19 01:14:14;;;;;;;4.18;1.65;;;;;;;0.06;88.16;101625.81;5172926;23;20333;-72
2024/03/19 01:16:43;;;;;;;1.30;1.20;;;;;;;0.21;87.64;101621.13;4889067;29;20221;-69
2024/03/19 01:19:11;;;;;;;1.20;1.10;;;;;;;0.23;87.48;101624.53;4883164;29;20300;-71
2024/03/19 01:21:39;;;;;;;0.90;0.73;;;;;;;0.10;88.21;101626.44;4868804;29;20196;-69
2024/03/19 01:24:07;;;;;;;1.63;0.90;;;;;;;-0.03;88.49;101629.19;4864153;29;20216;-70
2024/03/19 01:26:35;;;;;;;1.02;0.93;;;;;;;0.09;87.89;101624.75;4865218;29;20191;-70
2024/03/19 01:29:03;;;;;;;2.60;1.13;;;;;;;0.07;88.38;101624.84;4862029;29;20296;-73
2024/03/19 01:31:33;;;;;;;0.90;0.77;;;;;;;0.01;88.34;101630.63;4861329;29;20196;-71
2024/03/19 01:34:02;;;;;;;1.17;1.08;;;;;;;0.13;88.80;101621.72;4860701;29;20200;-71
2024/03/19 01:36:30;;;;;;;1.25;1.15;;;;;;;0.00;88.77;101635.09;4860874;29;20261;-70
2024/03/19 01:38:58;;;;;;;0.90;0.70;;;;;;;0.07;89.05;101624.84;4860839;29;20221;-71
2024/03/19 01:41:26;;;;;;;1.02;0.88;;;;;;;-0.11;89.15;101629.78;4846648;29;20200;-71
2024/03/19 01:43:54;;;;;;;0.80;0.50;;;;;;;-0.10;89.54;101625.28;4868586;29;20206;-71
2024/03/19 01:46:29;;;;;;;1.05;0.95;;;;;;;-0.02;88.94;101617.56;4867690;29;20194;-71
2024/03/19 01:48:59;;;;;;;0.80;0.60;;;;;;;0.15;87.91;101622.44;4861884;29;20273;-71
2024/03/19 01:51:28;;;;;;;0.80;0.57;;;;;;;0.16;87.83;101625.97;4860734;29;20639;-70
2024/03/19 01:53:58;;;;;;;2.13;1.30;;;;;;;0.05;88.22;101626.78;4866311;29;20230;-71
2024/03/19 01:56:26;;;;;;;0.80;0.60;;;;;;;0.07;88.03;101624.84;4861920;29;20626;-70
2024/03/19 01:58:55;;;;;;;1.20;1.10;;;;;;;-0.07;88.81;101627.72;4865944;29;20210;-71
2024/03/19 02:01:23;;;;;;;0.80;0.70;;;;;;;-0.13;89.54;101633.50;4866019;29;20548;-72
2024/03/19 02:03:52;;;;;;;2.25;1.35;;;;;;;0.06;88.22;101628.47;4863772;29;20207;-71
2024/03/19 02:06:21;;;;;;;1.73;1.63;;;;;;;-0.01;88.45;101632.59;4866408;29;20193;-72
2024/03/19 02:09:04;;;;;;;1.20;0.95;;;;;;;-0.03;88.85;101624.72;4877638;29;20620;-70
2024/03/19 02:11:32;;;;;;;2.05;1.95;;;;;;;0.05;88.36;101620.63;4861356;29;20194;-71
2024/03/19 02:14:00;;;;;;;1.10;0.93;;;;;;;0.12;87.90;101633.34;4867374;29;20263;-70
2024/03/19 02:16:29;;;;;;;0.93;0.82;;;;;;;0.00;88.02;101627.13;4850783;29;20628;-73
2024/03/19 02:18:59;;;;;;;0.80;0.60;;;;;;;-0.10;88.16;101628.78;4864853;29;20600;-70
2024/03/19 02:21:27;;;;;;;1.00;0.80;;;;;;;0.03;88.03;101623.41;4854713;29;20189;-72
2024/03/19 02:23:58;;;;;;;0.80;0.60;;;;;;;0.07;87.57;101618.69;4860754;29;20729;-70
2024/03/19 02:26:27;;;;;;;1.58;1.02;;;;;;;0.02;87.65;101613.72;4862854;29;20201;-70
2024/03/19 02:28:55;;;;;;;1.15;0.93;;;;;;;-0.07;88.33;101615.25;4861266;29;20201;-71
2024/03/19 02:31:24;;;;;;;0.90;0.70;;;;;;;0.02;88.32;101616.38;4867213;29;20197;-71
2024/03/19 02:33:52;;;;;;;1.42;1.27;;;;;;;-0.02;88.74;101612.25;4869645;29;20222;-70
2024/03/19 02:36:20;;;;;;;1.48;1.38;;;;;;;0.12;87.81;101620.03;4864755;29;20241;-71
2024/03/19 02:38:48;;;;;;;4.40;3.95;;;;;;;-0.14;88.01;101607.84;4866030;29;20577;-71
2024/03/19 02:41:18;;;;;;;1.27;1.17;;;;;;;0.08;88.06;101604.41;4858424;29;20201;-72
2024/03/19 02:43:46;;;;;;;1.20;1.10;;;;;;;0.06;88.28;101601.00;4860468;29;20200;-70
2024/03/19 02:46:14;;;;;;;1.40;1.10;;;;;;;0.04;88.18;101601.16;4862757;29;20724;-71
2024/03/19 02:48:42;;;;;;;1.60;1.48;;;;;;;-0.02;88.19;101598.94;4862026;29;20194;-70
2024/03/19 02:51:10;;;;;;;0.93;0.82;;;;;;;0.09;88.17;101596.31;4861374;29;20203;-72
2024/03/19 02:53:38;;;;;;;1.10;0.90;;;;;;;0.01;87.36;101598.69;4866879;29;20291;-71
2024/03/19 02:56:06;;;;;;;2.00;1.35;;;;;;;-0.02;88.29;101593.63;4845219;29;20198;-71
2024/03/19 02:58:36;;;;;;;0.85;0.65;;;;;;;-0.04;89.03;101606.19;4867148;29;20500;-71
2024/03/19 03:01:04;;;;;;;1.10;0.95;;;;;;;0.10;88.00;101605.97;4860950;29;20279;-70
2024/03/19 03:03:32;;;;;;;1.33;0.95;;;;;;;-0.01;88.28;101611.28;4861338;29;20223;-71
2024/03/19 03:06:00;;;;;;;0.80;0.60;;;;;;;-0.01;88.13;101613.94;4860832;29;20250;-70
2024/03/19 03:08:27;;;;;;;1.23;1.13;;;;;;;-0.11;88.77;101615.63;4855336;29;20213;-69
2024/03/19 03:10:55;;;;;;;1.80;1.45;;;;;;;-0.31;89.49;101617.09;4876956;29;20288;-69
2024/03/19 03:13:23;;;;;;;6.20;1.58;;;;;;;-0.16;89.51;101615.97;4870513;29;20210;-71
2024/03/19 03:15:53;;;;;;;1.23;0.82;;;;;;;-0.25;89.47;101613.16;4862282;29;20220;-69
2024/03/19 03:18:21;;;;;;;3.03;1.95;;;;;;;-0.27;90.06;101609.75;4857224;29;20579;-71
2024/03/19 03:20:49;;;;;;;0.80;0.57;;;;;;;-0.17;89.53;101603.63;4862758;29;20220;-70
2024/03/19 03:23:17;;;;;;;1.27;0.80;;;;;;;-0.12;89.07;101605.94;4863902;29;20201;-71
2024/03/19 03:25:45;;;;;;;3.00;1.48;;;;;;;-0.11;89.60;101608.47;4859205;29;20616;-70
2024/03/19 03:28:13;;;;;;;1.00;0.80;;;;;;;-0.08;89.33;101596.75;4859111;29;20197;-72
2024/03/19 03:30:41;;;;;;;0.80;0.50;;;;;;;-0.27;90.15;101607.06;4863054;29;20221;-69
2024/03/19 03:33:11;;;;;;;1.50;1.00;;;;;;;-0.33;90.41;101612.84;4866773;29;20748;-70
2024/03/19 03:35:39;;;;;;;1.17;1.08;;;;;;;-0.19;90.00;101613.50;4846940;29;20213;-70
2024/03/19 03:38:07;;;;;;;1.08;0.75;;;;;;;-0.16;90.14;101613.31;4863350;29;20617;-70
2024/03/19 03:40:35;;;;;;;1.23;0.98;;;;;;;-0.18;90.00;101609.91;4860374;29;20724;-72
2024/03/19 03:43:02;;;;;;;2.58;1.58;;;;;;;-0.05;89.12;101612.50;4864841;29;20561;-71
2024/03/19 03:45:30;;;;;;;0.98;0.88;;;;;;;-0.04;89.25;101607.03;4867655;29;20559;-71
2024/03/19 03:47:58;;;;;;;2.92;1.25;;;;;;;-0.19;89.62;101610.84;4866456;29;20270;-71
2024/03/19 03:50:27;;;;;;;0.80;0.68;;;;;;;-0.19;90.63;101610.84;4866223;29;20223;-72
2024/03/19 03:52:55;;;;;;;1.95;1.45;;;;;;;-0.17;90.42;101621.38;4865774;29;20195;-72
2024/03/19 03:55:23;;;;;;;1.08;0.98;;;;;;;-0.09;89.63;101622.50;4857911;29;20199;-71
2024/03/19 03:57:52;;;;;;;1.02;0.93;;;;;;;-0.11;89.70;101620.94;4874109;29;20210;-71
2024/03/19 04:00:21;;;;;;;1.00;0.90;;;;;;;-0.24;90.09;101620.16;4863601;29;20215;-70
2024/03/19 04:02:49;;;;;;;1.08;0.98;;;;;;;-0.29;90.35;101619.66;4868271;29;20677;-71
2024/03/19 04:05:17;;;;;;;1.10;1.00;;;;;;;-0.34;91.98;101625.31;4872534;29;20195;-70
2024/03/19 04:07:46;;;;;;;2.13;1.20;;;;;;;-0.33;91.35;101623.50;4866982;29;20189;-71
2024/03/19 04:10:15;;;;;;;1.23;1.10;;;;;;;-0.43;91.12;101624.19;4862009;29;20267;-71
2024/03/19 04:12:45;;;;;;;3.92;1.67;;;;;;;-0.25;92.23;101626.44;4862149;29;20192;-71
2024/03/19 04:15:13;;;;;;;1.33;1.23;;;;;;;-0.23;91.16;101627.16;4854343;29;20217;-72
2024/03/19 04:17:41;;;;;;;3.78;1.58;;;;;;;-0.19;90.29;101628.63;4867129;29;20212;-70
2024/03/19 04:20:11;;;;;;;1.60;1.10;;;;;;;-0.31;90.20;101640.19;4866465;29;20238;-72
2024/03/19 04:22:39;;;;;;;1.30;1.20;;;;;;;-0.46;90.53;101632.41;4867434;29;20191;-72
2024/03/19 04:25:10;;;;;;;2.80;1.30;;;;;;;-0.31;91.15;101637.53;4872846;29;20229;-71
2024/03/19 04:27:38;;;;;;;1.48;1.00;;;;;;;-0.30;90.24;101637.44;4861886;29;20279;-72
2024/03/19 04:30:07;;;;;;;3.38;1.83;;;;;;;-0.32;90.33;101639.34;4853284;29;20221;-71
2024/03/19 04:32:35;;;;;;;1.73;1.63;;;;;;;-0.20;89.94;101642.91;4865768;29;20290;-71
2024/03/19 04:35:04;;;;;;;1.90;1.52;;;;;;;-0.14;89.46;101645.09;4867563;29;20331;-71
2024/03/19 04:37:32;;;;;;;0.80;0.70;;;;;;;-0.24;89.53;101646.78;4869604;29;20250;-70
2024/03/19 04:40:00;;;;;;;0.90;0.75;;;;;;;-0.25;89.63;101647.72;4864244;29;20227;-71
2024/03/19 04:42:29;;;;;;;2.05;1.25;;;;;;;-0.38;90.25;101644.25;4867711;29;20188;-71
2024/03/19 04:44:57;;;;;;;3.20;1.90;;;;;;;-0.27;91.04;101647.81;4864213;29;20196;-71
2024/03/19 04:47:25;;;;;;;5.47;1.98;;;;;;;-0.42;91.16;101643.66;4862016;29;20278;-72
2024/03/19 04:49:52;;;;;;;1.05;0.95;;;;;;;-0.47;91.16;101645.78;4874844;29;20224;-71
2024/03/19 04:52:21;;;;;;;0.90;0.60;;;;;;;-0.43;91.29;101641.94;4867263;29;20201;-72
2024/03/19 04:54:49;;;;;;;1.02;0.68;;;;;;;-0.46;90.77;101648.34;4868546;29;20192;-70
2024/03/19 04:57:17;;;;;;;1.77;1.67;;;;;;;-0.41;90.41;101644.50;4865498;29;20578;-71
2024/03/19 04:59:46;;;;;;;2.13;1.80;;;;;;;-0.44;90.91;101634.94;4871097;29;20723;-70
2024/03/19 05:02:14;;;;;;;1.40;1.27;;;;;;;-0.53;90.95;101651.56;4861914;29;20757;-70
2024/03/19 05:04:42;;;;;;;0.90;0.75;;;;;;;-0.34;90.18;101648.41;4862510;29;20260;-70
2024/03/19 05:07:09;;;;;;;1.85;1.75;;;;;;;-0.41;89.75;101652.47;4870877;29;20195;-71
2024/03/19 05:09:38;;;;;;;1.02;0.93;;;;;;;-0.38;90.15;101641.59;4870837;29;20226;-71
2024/03/19 05:12:07;;;;;;;1.80;1.35;;;;;;;-0.41;90.81;101641.84;4872116;29;20734;-72
2024/03/19 05:14:34;;;;;;;1.52;1.23;;;;;;;-0.33;89.85;101639.44;4866506;29;20602;-72
2024/03/19 05:17:04;;;;;;;1.20;1.00;;;;;;;-0.38;90.05;101645.09;4863607;29;20195;-71
2024/03/19 05:19:32;;;;;;;2.30;2.10;;;;;;;-0.45;90.35;101638.56;4861117;29;20244;-71
2024/03/19 05:22:00;;;;;;;2.17;1.98;;;;;;;-0.33;90.72;101636.78;4863902;29;20201;-72
2024/03/19 05:24:28;;;;;;;0.95;0.70;;;;;;;-0.13;89.54;101638.81;4871148;29;20263;-71
2024/03/19 05:26:56;;;;;;;2.25;1.60;;;;;;;-0.10;88.92;101635.94;4874495;29;20208;-70
2024/03/19 05:29:24;;;;;;;2.05;1.95;;;;;;;-0.24;89.24;101630.81;4860714;29;20212;-71
2024/03/19 05:31:51;;;;;;;1.88;1.75;;;;;;;-0.15;89.18;101630.97;4866429;29;20632;-71
2024/03/19 05:34:21;;;;;;;0.80;0.60;;;;;;;-0.08;88.89;101629.53;4865701;29;20287;-72
2024/03/19 05:36:49;;;;;;;1.60;1.50;;;;;;;-0.17;89.25;101632.88;4865313;29;20287;-72
2024/03/19 05:39:17;;;;;;;1.58;1.13;;;;;;;-0.04;89.06;101638.13;4862328;29;20620;-71
2024/03/19 05:41:45;;;;;;;4.90;2.08;;;;;;;0.09;88.25;101641.56;4865150;29;20196;-71
2024/03/19 05:44:13;;;;;;;2.55;1.40;;;;;;;0.04;87.96;101627.75;4869051;29;20198;-71
2024/03/19 05:46:41;;;;;;;3.55;1.27;;;;;;;0.02;88.11;101627.00;4861519;29;20200;-71
2024/03/19 05:49:09;;;;;;;1.10;1.00;;;;;;;0.05;88.24;101632.09;4861777;29;20223;-70
2024/03/19 05:51:38;;;;;;;0.80;0.60;;;;;;;0.13;87.92;101635.03;4850786;29;20196;-73
2024/03/19 05:54:06;;;;;;;2.40;2.15;;;;;;;0.24;86.94;101640.38;4861888;29;20197;-71
2024/03/19 05:56:34;;;;;;;0.90;0.70;;;;;;;0.29;86.96;101640.88;4845725;29;20195;-71
2024/03/19 05:59:02;;;;;;;1.83;0.98;;;;;;;0.34;86.62;101644.03;4863298;29;20224;-72
2024/03/19 06:01:30;;;;;;;1.10;0.93;;;;;;;0.45;86.31;101659.19;4856087;29;20275;-72
2024/03/19 06:04:01;;;;;;;2.17;1.98;;;;;;;0.55;85.51;101659.31;4864751;29;20249;-72
2024/03/19 06:06:28;;;;;;;1.08;0.95;;;;;;;0.53;85.30;101658.59;4859712;29;20283;-72
2024/03/19 06:08:58;;;;;;;0.80;0.50;;;;;;;0.67;85.34;101656.56;4863980;29;20208;-72
2024/03/19 06:11:26;;;;;;;1.98;1.77;;;;;;;0.81;84.77;101664.31;4861232;29;20211;-72
2024/03/19 06:13:54;;;;;;;1.27;0.73;;;;;;;0.84;84.21;101658.72;4864242;29;20304;-71
2024/03/19 06:16:22;;;;;;;1.40;0.85;;;;;;;0.97;83.78;101671.94;4871061;29;20572;-70
2024/03/19 06:18:49;;;;;;;1.55;1.45;;;;;;;1.00;83.41;101671.69;4866661;29;20269;-73
2024/03/19 06:21:18;;;;;;;2.55;2.45;;;;;;;1.06;82.70;101673.03;4850348;29;20195;-71
2024/03/19 06:23:46;;;;;;;1.58;1.48;;;;;;;1.19;82.09;101658.59;4864841;29;20252;-71
2024/03/19 06:26:15;;;;;;;2.38;2.17;;;;;;;1.27;82.24;101665.97;4861001;29;20203;-73
2024/03/19 06:28:44;;;;;;;1.48;1.23;;;;;;;1.30;81.93;101671.06;4855677;29;20658;-70
2024/03/19 06:31:12;;;;;;;1.55;1.38;;;;;;;1.42;81.14;101674.56;4859844;29;20222;-70
2024/03/19 06:33:40;;;;;;;2.22;1.95;;;;;;;1.54;81.22;101686.91;4856449;29;20195;-72
2024/03/19 06:36:10;;;;;;;1.55;1.45;;;;;;;1.53;80.03;101691.38;4863698;29;20792;-69
2024/03/19 06:38:37;;;;;;;1.95;1.45;;;;;;;1.61;80.06;101685.41;4861440;29;20213;-71
2024/03/19 06:41:06;;;;;;;2.40;2.20;;;;;;;1.70;80.16;101688.19;4862417;29;20229;-71
2024/03/19 06:43:35;;;;;;;5.13;2.22;;;;;;;1.83;79.60;101687.19;4865266;29;20232;-70
2024/03/19 06:46:03;;;;;;;4.00;2.90;;;;;;;1.85;78.92;101687.91;4857612;29;20229;-71
2024/03/19 06:48:32;;;;;;;2.75;2.03;;;;;;;1.95;78.54;101688.81;4862903;29;20186;-71
2024/03/19 06:51:00;;;;;;;1.85;1.17;;;;;;;1.97;77.94;101689.56;4857873;29;20287;-67
2024/03/19 06:53:28;;;;;;;2.47;2.28;;;;;;;2.07;78.46;101690.50;4859665;29;20198;-67
2024/03/19 06:55:56;;;;;;;1.00;0.90;;;;;;;2.27;77.60;101704.84;4861497;29;20249;-69
2024/03/19 06:58:24;;;;;;;2.00;1.60;;;;;;;2.33;77.41;101709.66;4863504;29;20214;-67
2024/03/19 07:00:53;;;;;;;2.20;1.92;;;;;;;2.40;77.07;101708.16;4861852;29;20219;-67
2024/03/19 07:03:21;;;;;;;3.03;2.28;;;;;;;2.63;76.55;101701.72;4863263;29;20290;-66
2024/03/19 07:05:50;;;;;;;2.60;2.40;;;;;;;2.71;75.31;101701.91;4864177;29;20681;-67
2024/03/19 07:08:18;;;;;;;1.13;1.02;;;;;;;2.79;74.50;101707.44;4858480;29;20665;-67
2024/03/19 07:10:45;;;;;;;4.60;2.58;;;;;;;2.69;74.89;101703.88;4866126;29;20269;-66
2024/03/19 07:13:14;;;;;;;3.80;2.67;;;;;;;2.82;73.91;101707.16;4874460;29;20267;-67
2024/03/19 07:15:42;;;;;;;3.60;2.38;;;;;;;3.00;74.58;101713.59;4870910;29;20202;-66
2024/03/19 07:18:12;;;;;;;1.77;1.30;;;;;;;3.12;73.70;101713.50;4865489;29;20333;-68
2024/03/19 07:20:40;;;;;;;1.95;1.75;;;;;;;3.17;73.62;101724.66;4863059;29;20605;-68
2024/03/19 07:23:08;;;;;;;3.38;2.03;;;;;;;3.11;72.85;101722.50;4858119;29;20247;-67
2024/03/19 07:25:36;;;;;;;2.08;1.95;;;;;;;3.04;72.90;101717.72;4859954;29;20800;-68
2024/03/19 07:28:05;;;;;;;5.80;3.08;;;;;;;3.06;73.38;101707.72;4863167;29;20645;-68
2024/03/19 07:30:33;;;;;;;5.35;4.13;;;;;;;3.01;73.31;101698.41;4867264;29;20223;-69
2024/03/19 07:33:01;;;;;;;3.13;1.92;;;;;;;3.19;73.55;101696.81;4864393;29;20613;-68
2024/03/19 07:35:31;;;;;;;9.15;4.35;;;;;;;3.40;72.01;101713.63;4870245;29;20292;-67
2024/03/19 07:37:59;;;;;;;2.38;2.13;;;;;;;3.52;72.23;101716.19;4866681;29;20195;-67
2024/03/19 07:40:26;;;;;;;5.57;3.08;;;;;;;3.33;72.38;101712.50;4863221;29;20746;-67
2024/03/19 07:42:56;;;;;;;2.85;1.58;;;;;;;3.40;72.32;101708.28;4870772;29;20292;-68
2024/03/19 07:45:23;;;;;;;1.15;0.82;;;;;;;3.46;71.74;101704.22;4860459;29;20199;-67
2024/03/19 07:47:51;;;;;;;5.35;2.45;;;;;;;3.43;72.06;101717.88;4864614;29;20207;-69
2024/03/19 07:50:28;;;;;;;4.68;4.25;;;;;;;3.41;72.08;101720.66;4867683;29;20698;-65
2024/03/19 07:52:57;;;;;;;3.70;1.45;;;;;;;3.59;72.41;101715.50;4861854;29;20607;-67
2024/03/19 07:55:25;;;;;;;2.35;1.48;;;;;;;3.85;71.52;101730.09;4862150;29;20195;-65
2024/03/19 07:57:52;;;;;;;4.15;2.55;;;;;;;4.09;70.69;101734.19;4860915;29;20203;-66
2024/03/19 08:00:25;;;;;;;2.33;2.13;;;;;;;4.22;69.94;101721.34;4862415;29;20242;-66
2024/03/19 08:02:53;;;;;;;2.90;2.65;;;;;;;4.19;70.06;101729.69;4863574;29;20219;-66
2024/03/19 08:05:21;;;;;;;1.83;1.63;;;;;;;4.06;69.84;101732.66;4875805;29;20568;-66
2024/03/19 08:07:48;;;;;;;8.55;3.08;;;;;;;4.14;69.56;101731.94;4868802;29;20188;-67
2024/03/19 08:10:18;;;;;;;5.10;3.00;;;;;;;4.21;69.27;101741.13;4862203;29;20251;-68
2024/03/19 08:12:46;;;;;;;6.78;2.95;;;;;;;4.40;68.78;101741.13;4867593;29;20243;-67
2024/03/19 08:15:13;;;;;;;4.60;1.85;;;;;;;4.44;68.32;101741.69;4863018;29;20223;-66
2024/03/19 08:17:42;;;;;;;5.35;2.90;;;;;;;4.70;67.87;101746.28;4867437;29;20206;-66
2024/03/19 08:20:12;;;;;;;6.25;2.60;;;;;;;4.86;66.72;101748.38;4862171;29;20637;-67
2024/03/19 08:22:41;;;;;;;3.53;1.60;;;;;;;4.81;66.32;101746.16;4862155;29;20192;-68
2024/03/19 08:25:09;;;;;;;4.68;2.55;;;;;;;4.95;65.83;101747.50;4862009;29;20215;-68
2024/03/19 08:27:38;;;;;;;3.13;1.75;;;;;;;4.93;65.33;101737.94;4847062;29;20203;-67
2024/03/19 08:30:08;;;;;;;4.03;3.25;;;;;;;5.11;64.39;101746.91;4856671;29;20208;-68
2024/03/19 08:32:37;;;;;;;4.40;2.38;;;;;;;5.24;63.64;101756.31;4864082;29;20199;-67
2024/03/19 08:35:08;;;;;;;3.85;2.25;;;;;;;5.18;63.95;101754.22;4868679;29;20736;-68
2024/03/19 08:37:37;;;;;;;3.30;2.17;;;;;;;5.33;63.87;101757.28;4868173;29;20193;-68
2024/03/19 08:40:06;;;;;;;2.50;1.73;;;;;;;5.48;62.92;101752.28;4866453;29;20223;-71
2024/03/19 08:42:34;;;;;;;2.95;2.08;;;;;;;5.27;62.59;101760.56;4869907;29;20226;-68
2024/03/19 08:45:04;;;;;;;3.53;2.55;;;;;;;5.22;63.32;101760.16;4868351;29;20202;-68
2024/03/19 08:47:32;;;;;;;3.53;2.58;;;;;;;5.53;62.48;101769.63;4864536;29;20203;-68
2024/03/19 08:50:00;;;;;;;4.03;2.47;;;;;;;5.88;60.78;101762.69;4862127;29;20781;-66
2024/03/19 08:52:28;;;;;;;3.28;1.23;;;;;;;5.89;59.22;101756.34;4859228;29;20294;-66
2024/03/19 08:54:56;;;;;;;4.30;3.17;;;;;;;5.83;59.02;101764.97;4866769;29;20247;-67
2024/03/19 08:57:24;;;;;;;6.60;3.72;;;;;;;5.84;59.67;101761.28;4860474;29;20578;-69
2024/03/19 08:59:52;;;;;;;2.58;1.58;;;;;;;5.95;59.39;101756.59;4861666;29;20231;-68
2024/03/19 09:02:21;;;;;;;4.05;1.95;;;;;;;5.92;58.91;101756.03;4883568;29;20573;-67
2024/03/19 09:04:49;;;;;;;3.20;2.47;;;;;;;6.08;58.12;101758.91;4872090;29;20227;-67
2024/03/19 09:07:17;;;;;;;4.55;2.50;;;;;;;6.14;57.21;101763.66;4861135;29;20200;-68
2024/03/19 09:09:45;;;;;;;2.67;1.02;;;;;;;6.12;56.40;101765.66;4863398;29;20211;-66
2024/03/19 09:12:13;;;;;;;2.67;2.38;;;;;;;6.05;55.82;101753.84;4863457;29;20192;-67
2024/03/19 09:14:40;;;;;;;4.28;2.35;;;;;;;6.23;54.94;101765.44;4862461;29;20207;-67
2024/03/19 09:17:09;;;;;;;3.00;2.80;;;;;;;6.45;53.85;101756.91;4863598;29;20372;-66
2024/03/19 09:19:42;;;;;;;4.60;2.30;;;;;;;6.66;53.22;101751.22;4860529;29;20617;-67
2024/03/19 09:22:10;;;;;;;2.58;2.10;;;;;;;6.46;52.74;101752.38;4861005;29;20199;-68
2024/03/19 09:24:38;;;;;;;6.15;2.85;;;;;;;6.46;53.18;101747.84;4870974;29;20346;-65
2024/03/19 09:27:07;;;;;;;4.53;2.92;;;;;;;6.67;53.39;101744.84;4860869;29;20610;-67
2024/03/19 09:29:35;;;;;;;5.20;2.08;;;;;;;6.58;53.14;101748.47;4864488;29;20207;-67
2024/03/19 09:32:03;;;;;;;2.55;2.35;;;;;;;6.46;53.37;101741.63;4863784;29;20197;-68
2024/03/19 09:34:31;;;;;;;2.33;1.75;;;;;;;6.80;53.40;101745.25;4873937;29;20572;-66
2024/03/19 09:37:00;;;;;;;2.47;1.92;;;;;;;6.89;53.22;101735.38;4862046;29;20262;-67
2024/03/19 09:39:29;;;;;;;5.22;3.00;;;;;;;6.86;52.94;101728.50;4849549;29;20235;-67
2024/03/19 09:42:05;;;;;;;4.03;3.70;;;;;;;6.90;52.60;101729.00;4861094;29;20198;-67
2024/03/19 09:44:33;;;;;;;2.95;1.52;;;;;;;6.98;52.21;101724.53;4864932;29;20205;-65
2024/03/19 09:47:04;;;;;;;2.08;1.10;;;;;;;6.96;52.37;101728.38;4872778;29;20217;-68
2024/03/19 09:49:34;;;;;;;3.38;2.22;;;;;;;7.14;51.99;101726.47;4867345;29;20211;-67
2024/03/19 09:52:06;;;;;;;4.28;2.67;;;;;;;7.06;52.20;101728.28;4861011;29;20199;-66
2024/03/19 09:54:34;;;;;;;3.15;2.00;;;;;;;6.79;52.22;101727.41;4861184;29;20192;-66
2024/03/19 09:57:04;;;;;;;5.88;1.85;;;;;;;7.18;52.79;101735.06;4866992;29;20549;-67
2024/03/19 09:59:32;;;;;;;11.45;2.90;;;;;;;7.36;51.37;101735.81;4864817;29;20223;-66
2024/03/19 10:02:00;;;;;;;3.22;1.85;;;;;;;7.38;50.28;101733.84;4861505;29;20252;-68
2024/03/19 10:04:28;;;;;;;3.10;1.90;;;;;;;7.34;50.43;101727.94;4860674;29;20286;-67
2024/03/19 10:06:56;;;;;;;6.18;2.30;;;;;;;7.27;50.40;101721.50;4860896;29;20660;-65
2024/03/19 10:09:32;;;;;;;2.95;1.50;;;;;;;7.57;49.88;101724.66;4861059;29;20223;-66
2024/03/19 10:12:01;;;;;;;3.47;1.73;;;;;;;7.71;48.91;101721.34;4851733;29;20264;-66
2024/03/19 10:14:29;;;;;;;5.30;2.20;;;;;;;7.62;48.84;101725.84;4852859;29;20748;-66
2024/03/19 10:16:59;;;;;;;6.22;3.45;;;;;;;7.55;48.51;101732.06;4852607;29;20203;-68
2024/03/19 10:19:27;;;;;;;9.13;2.22;;;;;;;7.63;48.76;101726.69;4867331;29;20219;-65
2024/03/19 10:21:55;;;;;;;5.18;2.58;;;;;;;7.76;48.62;101724.38;4866100;29;20203;-66
2024/03/19 10:24:24;;;;;;;2.47;1.67;;;;;;;7.71;49.20;101718.63;4860434;29;20267;-68
2024/03/19 10:26:53;;;;;;;3.47;2.42;;;;;;;7.94;49.17;101722.41;4862003;29;20203;-67
2024/03/19 10:29:20;;;;;;;3.58;2.05;;;;;;;8.08;47.93;101721.78;4858684;29;20220;-68
2024/03/19 10:31:49;;;;;;;3.15;2.85;;;;;;;7.77;48.28;101720.69;4862545;29;20195;-68
2024/03/19 10:34:19;;;;;;;2.35;1.73;;;;;;;7.71;48.11;101713.25;4860248;29;20186;-67
2024/03/19 10:36:48;;;;;;;3.70;2.13;;;;;;;7.66;48.32;101715.59;4863359;29;20198;-68
2024/03/19 10:39:17;;;;;;;8.00;2.88;;;;;;;8.01;48.15;101715.34;4855296;29;20336;-68
2024/03/19 10:41:48;;;;;;;3.50;2.30;;;;;;;8.40;47.54;101712.91;4872366;29;20191;-68
2024/03/19 10:44:17;;;;;;;2.60;2.05;;;;;;;8.35;46.96;101711.72;4860572;29;20569;-68
2024/03/19 10:46:46;;;;;;;4.25;3.58;;;;;;;8.36;47.17;101708.88;4858584;29;20204;-67
2024/03/19 10:49:17;;;;;;;4.40;2.17;;;;;;;8.24;47.26;101711.00;4861291;29;20676;-69
2024/03/19 10:51:48;;;;;;;2.50;1.67;;;;;;;8.42;47.02;101712.75;4859835;29;20186;-67
2024/03/19 10:54:18;;;;;;;1.40;1.20;;;;;;;8.56;46.95;101709.38;4863762;29;20251;-68
2024/03/19 10:56:47;;;;;;;3.65;2.13;;;;;;;8.65;46.25;101703.81;4863786;29;20274;-68
2024/03/19 10:59:17;;;;;;;1.85;1.65;;;;;;;8.86;45.69;101708.66;4853302;29;20225;-67
2024/03/19 11:01:46;;;;;;;4.80;2.90;;;;;;;8.96;45.56;101711.16;4870054;29;20252;-66
2024/03/19 11:04:15;;;;;;;2.78;1.45;;;;;;;8.73;45.85;101714.56;4861399;29;20210;-66
2024/03/19 11:06:54;;;;;;;16.73;3.38;;;;;;;8.93;45.45;101717.75;4859948;29;20267;-63
2024/03/19 11:09:25;;;;;;;3.55;3.25;;;;;;;8.81;44.83;101719.09;4859882;29;20219;-66
2024/03/19 11:11:55;;;;;;;2.55;1.70;;;;;;;8.45;45.56;101707.00;4859995;29;20286;-66
2024/03/19 11:14:26;;;;;;;1.48;1.33;;;;;;;8.57;45.83;101711.88;4864583;29;20289;-66
2024/03/19 11:16:53;;;;;;;3.15;2.00;;;;;;;8.96;45.30;101709.31;4862266;29;20606;-67
2024/03/19 11:19:23;;;;;;;3.67;1.98;;;;;;;8.89;45.02;101704.78;4862006;29;20240;-67
2024/03/19 11:21:51;;;;;;;5.03;2.03;;;;;;;8.88;44.79;101701.22;4857192;29;20290;-66
2024/03/19 11:24:24;;;;;;;3.17;2.60;;;;;;;8.99;44.70;101700.88;4858292;29;20196;-67
2024/03/19 11:26:59;;;;;;;2.63;1.58;;;;;;;8.72;44.95;101693.16;4866114;29;20699;-66
2024/03/19 11:29:28;;;;;;;3.40;1.73;;;;;;;8.88;45.26;101703.94;4864238;29;20217;-67
2024/03/19 11:32:27;;;;;;;3.10;1.50;;;;;;;9.18;45.19;101693.41;4859189;29;20218;-66
2024/03/19 11:34:55;;;;;;;2.45;2.03;;;;;;;9.40;44.46;101689.94;4867656;29;20198;-66
2024/03/19 11:37:23;;;;;;;12.80;3.30;;;;;;;9.54;43.78;101687.31;4863165;29;20200;-66
2024/03/19 11:39:51;;;;;;;2.67;1.77;;;;;;;9.51;43.48;101703.91;4858840;29;20635;-67
2024/03/19 11:42:20;;;;;;;4.75;3.60;;;;;;;9.20;43.42;101694.09;4856130;29;20195;-67
2024/03/19 11:44:48;;;;;;;2.92;1.92;;;;;;;9.29;43.51;101687.63;4866669;29;20197;-67
2024/03/19 11:47:17;;;;;;;1.60;1.50;;;;;;;9.25;42.99;101683.56;4862709;29;20284;-66